createdAt,value
2022-08-03T00:00:27.472Z,59.89
2022-08-03T00:02:54.833Z,59.44
2022-08-03T00:05:22.255Z,59.20
2022-08-03T00:07:49.692Z,59.22
2022-08-03T00:10:17.022Z,59.50
2022-08-03T00:12:44.373Z,58.87
2022-08-03T00:15:15.064Z,59.40
2022-08-03T00:17:52.486Z,60.08
2022-08-03T00:20:24.226Z,59.70
2022-08-03T00:22:51.622Z,60.38
2022-08-03T00:25:19.346Z,60.81
2022-08-03T00:27:47.791Z,60.39
2022-08-03T00:30:16.846Z,59.07
2022-08-03T00:32:45.438Z,60.10
2022-08-03T00:35:32.589Z,60.83
2022-08-03T00:38:00.570Z,61.02
2022-08-03T00:40:28.258Z,60.35
2022-08-03T00:43:03.088Z,60.75
2022-08-03T00:45:32.059Z,60.31
2022-08-03T00:48:00.158Z,61.12
2022-08-03T00:50:29.227Z,60.27
2022-08-03T00:52:57.394Z,59.58
2022-08-03T00:55:25.022Z,60.74
2022-08-03T00:57:52.466Z,60.55
2022-08-03T01:00:28.724Z,60.94
2022-08-03T01:02:56.059Z,60.48
2022-08-03T01:05:23.692Z,60.73
2022-08-03T01:08:20.559Z,61.62
2022-08-03T01:11:12.188Z,61.77
2022-08-03T01:14:01.559Z,61.25
2022-08-03T01:16:37.186Z,61.72
2022-08-03T01:19:07.153Z,61.14
2022-08-03T01:21:40.491Z,61.42
2022-08-03T01:24:43.756Z,61.61
2022-08-03T01:27:26.827Z,61.99
2022-08-03T01:29:54.156Z,61.78
2022-08-03T01:32:59.469Z,62.39
2022-08-03T01:35:13.156Z,61.87
2022-08-03T01:38:03.381Z,61.44
2022-08-03T01:40:32.307Z,60.91
2022-08-03T01:43:00.434Z,62.31
2022-08-03T01:45:28.579Z,61.83
2022-08-03T01:48:01.961Z,62.50
2022-08-03T01:50:29.689Z,62.26
2022-08-03T01:52:57.930Z,62.08
2022-08-03T01:55:28.251Z,62.07
2022-08-03T01:58:04.678Z,62.18
2022-08-03T02:00:32.827Z,62.26
2022-08-03T02:03:00.766Z,63.48
2022-08-03T02:05:28.478Z,62.17
2022-08-03T02:07:56.727Z,62.09
2022-08-03T02:10:35.479Z,62.30
2022-08-03T02:13:04.048Z,62.01
2022-08-03T02:15:32.398Z,62.22
2022-08-03T02:18:00.570Z,62.53
2022-08-03T02:20:28.742Z,62.56
2022-08-03T02:22:55.995Z,62.81
2022-08-03T02:25:23.607Z,62.59
2022-08-03T02:27:56.558Z,62.59
2022-08-03T02:30:28.121Z,62.60
2022-08-03T02:32:56.015Z,61.91
2022-08-03T02:35:25.239Z,63.46
2022-08-03T02:37:53.401Z,63.53
2022-08-03T02:40:22.963Z,63.30
2022-08-03T02:42:53.488Z,62.37
2022-08-03T02:45:21.104Z,63.01
2022-08-03T02:47:53.797Z,63.81
2022-08-03T02:50:23.280Z,62.36
2022-08-03T02:52:51.276Z,62.82
2022-08-03T02:55:19.808Z,62.32
2022-08-03T02:57:47.633Z,63.02
2022-08-03T03:00:28.194Z,63.72
2022-08-03T03:03:00.547Z,63.45
2022-08-03T03:05:53.403Z,63.58
2022-08-03T03:08:20.607Z,63.04
2022-08-03T03:10:48.934Z,62.76
2022-08-03T03:13:21.144Z,63.41
2022-08-03T03:15:49.057Z,63.45
2022-08-03T03:18:21.874Z,64.45
2022-08-03T03:20:50.527Z,63.87
2022-08-03T03:23:17.986Z,64.32
2022-08-03T03:25:45.728Z,64.19
2022-08-03T03:28:13.003Z,64.86
2022-08-03T03:30:40.366Z,65.36
2022-08-03T03:33:07.806Z,65.55
2022-08-03T03:35:38.843Z,64.77
2022-08-03T03:38:06.938Z,64.16
2022-08-03T03:40:37.627Z,64.46
2022-08-03T03:43:08.344Z,64.47
2022-08-03T03:45:35.912Z,65.06
2022-08-03T03:48:06.560Z,64.52
2022-08-03T03:50:34.666Z,65.14
2022-08-03T03:53:03.099Z,64.42
2022-08-03T03:55:30.568Z,64.93
2022-08-03T03:57:57.818Z,65.08
2022-08-03T04:00:25.135Z,65.95
2022-08-03T04:02:52.465Z,64.48
2022-08-03T04:05:39.278Z,64.94
2022-08-03T04:08:31.613Z,64.35
2022-08-03T04:11:07.705Z,65.81
2022-08-03T04:13:47.485Z,64.70
2022-08-03T04:16:16.717Z,65.33
2022-08-03T04:18:48.448Z,64.86
2022-08-03T04:21:18.085Z,64.28
2022-08-03T04:23:48.437Z,65.30
2022-08-03T04:26:18.757Z,64.51
2022-08-03T04:28:46.739Z,64.54
2022-08-03T04:31:14.953Z,64.48
2022-08-03T04:33:44.128Z,66.07
2022-08-03T04:36:14.918Z,64.27
2022-08-03T04:39:14.853Z,65.53
2022-08-03T04:42:04.722Z,64.32
2022-08-03T04:44:31.803Z,64.45
2022-08-03T04:46:59.635Z,64.27
2022-08-03T04:49:27.400Z,64.63
2022-08-03T04:51:54.770Z,64.03
2022-08-03T04:54:22.067Z,63.83
2022-08-03T04:56:49.361Z,63.52
2022-08-03T04:59:17.885Z,64.02
2022-08-03T05:01:45.305Z,63.43
2022-08-03T05:04:12.756Z,63.80
2022-08-03T05:06:48.135Z,63.55
2022-08-03T05:09:16.109Z,64.30
2022-08-03T05:12:03.511Z,62.77
2022-08-03T05:14:30.770Z,65.21
2022-08-03T05:16:58.039Z,64.50
2022-08-03T05:19:25.322Z,63.65
2022-08-03T05:21:53.133Z,62.78
2022-08-03T05:24:20.422Z,63.98
2022-08-03T05:26:47.747Z,62.86
2022-08-03T05:29:15.020Z,62.61
2022-08-03T05:31:42.331Z,62.20
2022-08-03T05:34:09.626Z,62.52
2022-08-03T05:36:36.894Z,62.61
2022-08-03T05:39:04.185Z,62.34
2022-08-03T05:41:37.225Z,62.23
2022-08-03T05:44:04.954Z,61.77
2022-08-03T05:46:32.258Z,61.26
2022-08-03T05:48:59.587Z,61.85
2022-08-03T05:51:27.722Z,62.35
2022-08-03T05:53:54.985Z,61.68
2022-08-03T05:56:24.218Z,61.51
2022-08-03T05:58:52.542Z,61.23
2022-08-03T06:01:22.049Z,60.63
2022-08-03T06:03:50.179Z,60.21
2022-08-03T06:06:17.677Z,60.12
2022-08-03T06:08:45.541Z,60.68
2022-08-03T06:11:13.225Z,59.98
2022-08-03T06:13:40.812Z,59.80
2022-08-03T06:16:08.462Z,59.47
2022-08-03T06:18:36.229Z,59.15
2022-08-03T06:21:14.553Z,58.78
2022-08-03T06:23:52.852Z,58.68
2022-08-03T06:26:23.001Z,59.29
2022-08-03T06:28:52.482Z,58.25
2022-08-03T06:31:32.419Z,58.21
2022-08-03T06:34:34.182Z,57.88
2022-08-03T06:36:51.022Z,57.30
2022-08-03T06:39:20.086Z,56.84
2022-08-03T06:41:47.515Z,56.75
2022-08-03T06:44:14.777Z,56.33
2022-08-03T06:46:43.313Z,56.35
2022-08-03T06:49:10.702Z,56.42
2022-08-03T06:52:03.347Z,55.99
2022-08-03T06:54:25.311Z,55.83
2022-08-03T06:56:52.746Z,55.82
2022-08-03T07:00:09.680Z,55.64
2022-08-03T07:02:07.494Z,54.82
2022-08-03T07:04:34.790Z,54.84
2022-08-03T07:07:02.071Z,54.33
2022-08-03T07:09:29.319Z,54.19
2022-08-03T07:11:57.134Z,53.93
2022-08-03T07:14:24.431Z,53.55
2022-08-03T07:16:51.690Z,53.97
2022-08-03T07:19:18.970Z,53.36
2022-08-03T07:21:47.382Z,53.67
2022-08-03T07:24:14.683Z,52.81
2022-08-03T07:26:41.958Z,52.93
2022-08-03T07:29:15.064Z,52.93
2022-08-03T07:31:42.910Z,52.60
2022-08-03T07:34:10.204Z,52.44
2022-08-03T07:36:37.604Z,51.89
2022-08-03T07:39:16.010Z,51.93
2022-08-03T07:41:45.856Z,51.11
2022-08-03T07:44:13.371Z,51.66
2022-08-03T07:46:40.664Z,51.12
2022-08-03T07:49:07.987Z,50.57
2022-08-03T07:51:35.370Z,50.46
2022-08-03T07:54:02.774Z,50.38
2022-08-03T07:56:30.091Z,50.42
2022-08-03T07:58:57.418Z,49.69
2022-08-03T08:01:24.805Z,48.99
2022-08-03T08:03:53.244Z,49.40
2022-08-03T08:06:21.648Z,48.72
2022-08-03T08:08:48.919Z,49.44
2022-08-03T08:11:16.344Z,47.91
2022-08-03T08:13:43.595Z,47.81
2022-08-03T08:16:10.910Z,48.24
2022-08-03T08:18:38.182Z,47.92
2022-08-03T08:21:05.431Z,46.80
2022-08-03T08:23:42.531Z,47.60
2022-08-03T08:26:10.979Z,46.44
2022-08-03T08:28:38.444Z,46.60
2022-08-03T08:31:05.700Z,46.68
2022-08-03T08:34:02.564Z,45.54
2022-08-03T08:36:22.005Z,45.98
2022-08-03T08:38:49.357Z,44.95
2022-08-03T08:41:17.242Z,44.78
2022-08-03T08:43:44.500Z,44.46
2022-08-03T08:46:12.358Z,44.11
2022-08-03T08:48:41.506Z,43.28
2022-08-03T08:51:09.826Z,43.18
2022-08-03T08:53:38.331Z,43.77
2022-08-03T08:56:06.642Z,42.19
2022-08-03T08:58:35.162Z,43.14
2022-08-03T09:01:02.530Z,42.39
2022-08-03T09:03:30.947Z,43.13
2022-08-03T09:05:59.775Z,43.46
2022-08-03T09:08:27.043Z,42.27
2022-08-03T09:10:54.393Z,41.58
2022-08-03T09:13:21.917Z,41.90
2022-08-03T09:16:01.306Z,40.60
2022-08-03T09:18:30.541Z,41.39
2022-08-03T09:21:33.602Z,41.55
2022-08-03T09:24:04.108Z,41.45
2022-08-03T09:26:34.280Z,40.77
2022-08-03T09:29:14.897Z,38.65
2022-08-03T09:31:45.318Z,40.41
2022-08-03T09:34:14.255Z,38.49
2022-08-03T09:36:41.619Z,38.25
2022-08-03T09:39:13.594Z,38.80
2022-08-03T09:41:41.863Z,38.88
2022-08-03T09:44:09.503Z,39.18
2022-08-03T09:46:53.216Z,39.32
2022-08-03T09:49:20.536Z,39.35
2022-08-03T09:52:31.676Z,37.89
2022-08-03T09:54:35.457Z,38.33
2022-08-03T09:57:02.991Z,38.68
2022-08-03T09:59:31.329Z,38.40
2022-08-03T10:02:02.294Z,37.06
2022-08-03T10:04:29.553Z,37.70
2022-08-03T10:07:05.566Z,38.20
2022-08-03T10:09:33.194Z,36.75
2022-08-03T10:12:11.210Z,36.61
2022-08-03T10:14:39.310Z,36.45
2022-08-03T10:17:06.799Z,37.25
2022-08-03T10:19:34.090Z,36.07
2022-08-03T10:22:03.870Z,36.42
2022-08-03T10:24:34.228Z,36.89
2022-08-03T10:27:03.609Z,35.85
2022-08-03T10:29:33.757Z,36.81
2022-08-03T10:32:01.843Z,36.09
2022-08-03T10:34:34.019Z,36.66
2022-08-03T10:37:03.438Z,35.79
2022-08-03T10:39:31.058Z,34.42
2022-08-03T10:42:00.053Z,34.25
2022-08-03T10:44:33.402Z,34.93
2022-08-03T10:47:00.965Z,34.84
2022-08-03T10:49:35.138Z,34.80
2022-08-03T10:52:13.793Z,34.53
2022-08-03T10:55:10.748Z,33.66
2022-08-03T10:57:58.244Z,34.08
2022-08-03T11:00:27.539Z,33.68
2022-08-03T11:03:06.620Z,35.05
2022-08-03T11:05:41.725Z,33.83
2022-08-03T11:08:28.523Z,34.10
2022-08-03T11:10:57.333Z,33.62
2022-08-03T11:13:25.786Z,34.25
2022-08-03T11:15:54.125Z,33.52
2022-08-03T11:18:29.652Z,34.49
2022-08-03T11:20:58.032Z,33.84
2022-08-03T11:24:04.631Z,33.63
2022-08-03T11:26:34.494Z,33.54
2022-08-03T11:29:21.171Z,33.80
2022-08-03T11:31:50.861Z,33.23
2022-08-03T11:34:19.023Z,33.05
2022-08-03T11:37:04.914Z,32.09
2022-08-03T11:39:43.607Z,32.88
2022-08-03T11:42:30.883Z,32.34
2022-08-03T11:44:58.732Z,32.26
2022-08-03T11:47:27.342Z,32.11
2022-08-03T11:49:58.996Z,32.52
2022-08-03T11:52:28.688Z,31.96
2022-08-03T11:54:57.126Z,32.78
2022-08-03T11:59:10.891Z,31.42
2022-08-03T12:00:28.776Z,31.55
2022-08-03T12:03:07.427Z,32.94
2022-08-03T12:05:35.886Z,32.34
2022-08-03T12:08:06.605Z,31.05
2022-08-03T12:10:34.982Z,31.47
2022-08-03T12:13:02.890Z,31.19
2022-08-03T12:15:31.070Z,31.66
2022-08-03T12:17:58.401Z,31.92
2022-08-03T12:20:34.544Z,30.86
2022-08-03T12:23:04.306Z,31.45
2022-08-03T12:25:39.670Z,32.19
2022-08-03T12:28:37.171Z,31.66
2022-08-03T12:31:02.714Z,30.18
2022-08-03T12:33:30.043Z,30.88
2022-08-03T12:36:08.010Z,31.06
2022-08-03T12:38:36.550Z,31.23
2022-08-03T12:41:16.701Z,31.46
2022-08-03T12:43:50.235Z,31.38
2022-08-03T12:46:18.817Z,31.57
2022-08-03T12:48:58.384Z,31.16
2022-08-03T12:51:27.461Z,32.13
2022-08-03T12:53:55.314Z,33.48
2022-08-03T12:56:22.805Z,34.28
2022-08-03T12:58:53.272Z,35.04
2022-08-03T13:01:22.612Z,36.37
2022-08-03T13:03:53.224Z,36.25
2022-08-03T13:06:22.132Z,36.86
2022-08-03T13:08:49.694Z,36.30
2022-08-03T13:11:21.236Z,36.77
2022-08-03T13:13:48.797Z,37.61
2022-08-03T13:16:19.390Z,37.26
2022-08-03T13:18:47.175Z,37.29
2022-08-03T13:21:16.137Z,36.83
2022-08-03T13:23:43.867Z,37.12
2022-08-03T13:26:11.918Z,37.39
2022-08-03T13:28:39.534Z,38.00
2022-08-03T13:31:07.114Z,38.53
2022-08-03T13:33:34.480Z,38.07
2022-08-03T13:36:01.769Z,39.85
2022-08-03T13:38:29.154Z,38.22
2022-08-03T13:40:56.454Z,38.19
2022-08-03T13:43:23.986Z,37.86
2022-08-03T13:45:54.855Z,39.12
2022-08-03T13:48:37.670Z,39.09
2022-08-03T13:51:11.829Z,40.23
2022-08-03T13:53:50.904Z,40.36
2022-08-03T13:56:18.275Z,40.69
2022-08-03T13:58:45.574Z,40.69
2022-08-03T14:01:12.965Z,40.13
2022-08-03T14:03:40.238Z,38.91
2022-08-03T14:06:07.494Z,39.33
2022-08-03T14:08:34.886Z,38.43
2022-08-03T14:11:02.174Z,38.56
2022-08-03T14:13:29.471Z,38.51
2022-08-03T14:15:56.755Z,38.34
2022-08-03T14:18:27.961Z,38.44
2022-08-03T14:21:05.031Z,38.44
2022-08-03T14:23:33.502Z,38.68
2022-08-03T14:26:01.152Z,39.11
2022-08-03T14:28:28.722Z,38.58
2022-08-03T14:30:56.307Z,38.82
2022-08-03T14:33:23.818Z,38.30
2022-08-03T14:35:51.907Z,38.91
2022-08-03T14:38:19.532Z,38.56
2022-08-03T14:40:47.215Z,37.33
2022-08-03T14:43:14.662Z,37.05
2022-08-03T14:45:42.053Z,38.21
2022-08-03T14:50:33.887Z,39.45
2022-08-03T14:50:56.905Z,39.97
2022-08-03T14:53:24.521Z,39.93
2022-08-03T14:55:53.328Z,40.89
2022-08-03T14:58:22.187Z,40.17
2022-08-03T15:00:51.013Z,41.67
2022-08-03T15:03:23.842Z,41.23
2022-08-03T15:05:52.078Z,40.95
2022-08-03T15:08:19.764Z,41.75
2022-08-03T15:10:47.127Z,43.16
2022-08-03T15:13:17.512Z,42.91
2022-08-03T15:15:44.890Z,42.84
2022-08-03T15:18:12.158Z,42.54
2022-08-03T15:20:44.827Z,42.92
2022-08-03T15:23:14.582Z,43.38
2022-08-03T15:26:29.209Z,44.26
2022-08-03T15:28:30.299Z,43.77
2022-08-03T15:30:57.860Z,43.17
2022-08-03T15:33:25.190Z,43.19
2022-08-03T15:35:53.355Z,43.51
2022-08-03T15:38:23.012Z,43.25
2022-08-03T15:40:56.829Z,43.67
2022-08-03T15:43:24.137Z,43.21
2022-08-03T15:46:18.927Z,42.84
2022-08-03T15:48:39.369Z,42.65
2022-08-03T15:51:07.113Z,42.82
2022-08-03T15:53:34.826Z,42.24
2022-08-03T15:56:09.719Z,42.53
2022-08-03T15:59:11.352Z,42.33
2022-08-03T16:01:26.490Z,42.44
2022-08-03T16:03:54.028Z,42.19
2022-08-03T16:06:35.549Z,42.88
2022-08-03T16:09:24.262Z,42.65
2022-08-03T16:11:54.929Z,43.01
2022-08-03T16:14:34.854Z,43.19
2022-08-03T16:17:07.650Z,42.94
2022-08-03T16:19:35.501Z,43.24
2022-08-03T16:22:03.243Z,43.42
2022-08-03T16:24:30.719Z,43.60
2022-08-03T16:27:00.833Z,43.71
2022-08-03T16:29:28.583Z,43.59
2022-08-03T16:31:55.923Z,43.67
2022-08-03T16:34:23.352Z,44.34
2022-08-03T16:36:52.516Z,44.80
2022-08-03T16:39:19.846Z,44.70
2022-08-03T16:41:54.208Z,44.63
2022-08-03T16:44:29.505Z,43.99
2022-08-03T16:46:56.987Z,42.89
2022-08-03T16:49:54.322Z,41.26
2022-08-03T16:52:12.987Z,39.94
2022-08-03T16:54:40.750Z,39.13
2022-08-03T16:57:08.542Z,38.41
2022-08-03T16:59:36.954Z,37.78
2022-08-03T17:02:10.032Z,37.69
2022-08-03T17:04:40.091Z,37.99
2022-08-03T17:07:08.704Z,39.06
2022-08-03T17:09:38.230Z,39.31
2022-08-03T17:12:07.180Z,40.44
2022-08-03T17:14:34.729Z,40.91
2022-08-03T17:17:04.107Z,41.14
2022-08-03T17:19:32.568Z,41.74
2022-08-03T17:22:01.532Z,42.38
2022-08-03T17:24:40.796Z,42.23
2022-08-03T17:28:42.079Z,42.76
2022-08-03T17:30:01.009Z,43.38
2022-08-03T17:32:31.825Z,43.46
2022-08-03T17:34:59.363Z,43.75
2022-08-03T17:37:57.454Z,43.99
2022-08-03T17:40:17.432Z,44.43
2022-08-03T17:42:50.818Z,44.95
2022-08-03T17:45:18.783Z,45.20
2022-08-03T17:47:57.397Z,45.67
2022-08-03T17:50:28.827Z,46.03
2022-08-03T17:53:07.429Z,46.25
2022-08-03T17:55:57.652Z,46.43
2022-08-03T17:58:54.651Z,46.59
2022-08-03T18:02:08.974Z,47.13
2022-08-03T18:04:42.371Z,47.72
2022-08-03T18:07:12.496Z,48.52
2022-08-03T18:10:06.214Z,48.28
2022-08-03T18:12:43.231Z,48.70
2022-08-03T18:15:21.252Z,48.91
2022-08-03T18:17:58.070Z,49.35
2022-08-03T18:20:32.793Z,49.83
2022-08-03T18:23:08.853Z,49.92
2022-08-03T18:25:45.716Z,52.44
2022-08-03T18:28:18.503Z,51.64
2022-08-03T18:31:07.109Z,51.61
2022-08-03T18:34:18.689Z,51.78
2022-08-03T18:36:30.018Z,52.01
2022-08-03T18:39:12.581Z,52.80
2022-08-03T18:41:44.602Z,52.15
2022-08-03T18:44:37.313Z,52.75
2022-08-03T18:47:16.405Z,54.29
2022-08-03T18:50:02.603Z,54.92
2022-08-03T18:52:35.049Z,55.33
2022-08-03T18:55:32.970Z,54.55
2022-08-03T18:58:30.830Z,56.54
2022-08-03T19:02:00.069Z,56.88
2022-08-03T19:04:14.026Z,57.38
2022-08-03T19:06:45.462Z,56.52
2022-08-03T19:09:20.626Z,57.25
2022-08-03T19:12:12.302Z,57.06
2022-08-03T19:14:42.478Z,57.60
2022-08-03T19:17:10.987Z,57.64
2022-08-03T19:19:44.543Z,58.42
2022-08-03T19:22:16.171Z,57.38
2022-08-03T19:24:45.286Z,56.98
2022-08-03T19:27:13.356Z,58.19
2022-08-03T19:29:58.526Z,58.31
2022-08-03T19:32:28.937Z,56.06
2022-08-03T19:34:57.123Z,58.26
2022-08-03T19:37:33.270Z,58.21
2022-08-03T19:40:10.209Z,57.91
2022-08-03T19:42:42.536Z,58.65
2022-08-03T19:45:14.423Z,58.42
2022-08-03T19:47:47.504Z,58.76
2022-08-03T19:50:16.146Z,59.90
2022-08-03T19:52:46.167Z,58.08
2022-08-03T19:55:15.249Z,58.10
2022-08-03T19:57:43.906Z,57.43
2022-08-03T20:00:13.897Z,59.09
2022-08-03T20:02:41.443Z,57.75
2022-08-03T20:05:15.456Z,57.46
2022-08-03T20:07:47.776Z,58.73
2022-08-03T20:10:16.691Z,58.79
2022-08-03T20:12:44.637Z,58.44
2022-08-03T20:15:12.060Z,58.76
2022-08-03T20:17:55.203Z,58.64
2022-08-03T20:20:26.118Z,59.29
2022-08-03T20:22:57.611Z,58.82
2022-08-03T20:25:37.577Z,58.01
2022-08-03T20:28:18.810Z,58.63
2022-08-03T20:30:54.095Z,59.15
2022-08-03T20:33:34.618Z,59.20
2022-08-03T20:36:08.793Z,59.04
2022-08-03T20:38:43.629Z,59.18
2022-08-03T20:41:15.162Z,58.12
2022-08-03T20:43:42.478Z,59.41
2022-08-03T20:46:32.715Z,59.03
2022-08-03T20:48:58.949Z,59.27
2022-08-03T20:51:49.073Z,59.19
2022-08-03T20:54:17.611Z,59.43
2022-08-03T20:56:58.257Z,59.21
2022-08-03T20:59:38.457Z,59.23
2022-08-03T21:02:19.528Z,59.16
2022-08-03T21:04:55.995Z,59.89
2022-08-03T21:07:24.047Z,59.56
2022-08-03T21:09:53.003Z,59.31
2022-08-03T21:12:43.053Z,59.00
2022-08-03T21:15:10.801Z,59.69
2022-08-03T21:18:00.019Z,59.47
2022-08-03T21:20:30.113Z,59.18
2022-08-03T21:22:58.164Z,59.45
2022-08-03T21:25:29.696Z,59.75
2022-08-03T21:27:57.374Z,59.80
2022-08-03T21:30:25.839Z,60.18
2022-08-03T21:32:54.407Z,59.87
2022-08-03T21:35:24.129Z,60.00
2022-08-03T21:38:09.754Z,60.26
2022-08-03T21:40:37.618Z,59.97
2022-08-03T21:43:04.917Z,60.10
2022-08-03T21:45:35.326Z,60.42
2022-08-03T21:48:08.846Z,60.65
2022-08-03T21:50:36.402Z,60.17
2022-08-03T21:53:03.850Z,60.65
2022-08-03T21:55:32.359Z,60.65
2022-08-03T21:58:03.230Z,60.59
2022-08-03T22:00:30.515Z,60.12
2022-08-03T22:02:58.450Z,60.29
2022-08-03T22:05:42.832Z,60.54
2022-08-03T22:08:14.230Z,60.67
2022-08-03T22:10:43.501Z,61.46
2022-08-03T22:13:11.909Z,60.16
2022-08-03T22:15:39.231Z,60.59
2022-08-03T22:18:06.554Z,61.38
2022-08-03T22:20:33.829Z,61.04
2022-08-03T22:23:02.535Z,61.04
2022-08-03T22:25:34.982Z,60.87
2022-08-03T22:28:04.263Z,61.34
2022-08-03T22:30:33.035Z,61.27
2022-08-03T22:33:01.367Z,61.68
2022-08-03T22:35:30.538Z,61.32
2022-08-03T22:37:58.558Z,61.32
2022-08-03T22:40:26.407Z,61.16
2022-08-03T22:42:54.447Z,61.54
2022-08-03T22:46:08.014Z,61.72
2022-08-03T22:48:10.307Z,61.69
2022-08-03T22:50:38.375Z,62.26
2022-08-03T22:53:06.554Z,63.00
2022-08-03T22:55:34.038Z,63.33
2022-08-03T22:58:01.324Z,62.19
2022-08-03T23:00:28.613Z,63.54
2022-08-03T23:02:56.929Z,62.57
2022-08-03T23:06:00.304Z,62.76
2022-08-03T23:08:18.908Z,63.09
2022-08-03T23:10:47.479Z,62.65
2022-08-03T23:13:16.596Z,63.51
2022-08-03T23:15:49.762Z,63.14
2022-08-03T23:18:19.058Z,62.93
2022-08-03T23:20:49.231Z,63.37
2022-08-03T23:23:19.913Z,63.19
2022-08-03T23:25:49.706Z,63.36
2022-08-03T23:28:17.458Z,63.56
2022-08-03T23:30:45.395Z,65.12
2022-08-03T23:33:16.416Z,63.48
2022-08-03T23:36:27.677Z,64.73
2022-08-03T23:38:48.351Z,64.68
2022-08-03T23:41:17.641Z,64.60
2022-08-03T23:43:53.869Z,64.01
2022-08-03T23:46:22.618Z,64.62
2022-08-03T23:48:50.399Z,65.07
2022-08-03T23:51:37.905Z,65.96
2022-08-03T23:54:29.734Z,66.47
2022-08-03T23:56:59.992Z,65.77
2022-08-03T23:59:32.132Z,65.78
